createdAt,value
2019-05-07T00:01:12.256Z,56.59
2019-05-07T00:03:39.228Z,56.31
2019-05-07T00:06:05.943Z,56.20
2019-05-07T00:08:32.702Z,56.04
2019-05-07T00:11:02.325Z,56.04
2019-05-07T00:13:28.955Z,55.65
2019-05-07T00:15:55.695Z,55.61
2019-05-07T00:18:23.079Z,55.33
2019-05-07T00:20:49.952Z,55.38
2019-05-07T00:23:16.711Z,55.22
2019-05-07T00:25:43.504Z,55.13
2019-05-07T00:28:12.256Z,55.27
2019-05-07T00:30:38.783Z,55.33
2019-05-07T00:33:05.572Z,55.14
2019-05-07T00:35:32.468Z,55.14
2019-05-07T00:37:59.163Z,55.24
2019-05-07T00:40:25.983Z,55.27
2019-05-07T00:42:53.041Z,55.34
2019-05-07T00:45:21.595Z,55.48
2019-05-07T00:47:48.938Z,55.54
2019-05-07T00:50:15.783Z,55.37
2019-05-07T00:52:43.085Z,55.29
2019-05-07T00:55:11.972Z,55.32
2019-05-07T00:57:38.558Z,55.37
2019-05-07T01:00:05.796Z,55.65
2019-05-07T01:02:32.611Z,55.77
2019-05-07T01:04:59.336Z,55.69
2019-05-07T01:07:26.107Z,55.60
2019-05-07T01:09:52.917Z,55.69
2019-05-07T01:12:19.692Z,55.55
2019-05-07T01:14:46.413Z,55.77
2019-05-07T01:17:13.237Z,55.57
2019-05-07T01:19:42.224Z,55.78
2019-05-07T01:22:08.524Z,55.90
2019-05-07T01:24:35.399Z,56.07
2019-05-07T01:27:02.257Z,55.81
2019-05-07T01:29:29.007Z,55.80
2019-05-07T01:31:55.800Z,55.93
2019-05-07T01:34:23.061Z,56.09
2019-05-07T01:36:52.237Z,55.92
2019-05-07T01:39:18.576Z,55.82
2019-05-07T01:41:45.322Z,55.54
2019-05-07T01:44:12.856Z,55.48
2019-05-07T01:46:42.080Z,55.74
2019-05-07T01:49:08.427Z,56.13
2019-05-07T01:51:35.162Z,56.61
2019-05-07T01:54:02.311Z,56.62
2019-05-07T01:56:29.228Z,56.19
2019-05-07T01:58:55.954Z,56.30
2019-05-07T02:01:22.860Z,56.30
2019-05-07T02:03:49.623Z,55.96
2019-05-07T02:06:16.372Z,56.19
2019-05-07T02:08:43.192Z,56.44
2019-05-07T02:11:09.904Z,56.55
2019-05-07T02:13:36.717Z,56.40
2019-05-07T02:16:04.304Z,56.15
2019-05-07T02:18:32.601Z,56.37
2019-05-07T02:20:59.960Z,56.41
2019-05-07T02:23:26.738Z,56.27
2019-05-07T02:25:53.493Z,56.17
2019-05-07T02:28:22.178Z,56.01
2019-05-07T02:30:48.862Z,56.28
2019-05-07T02:33:15.619Z,56.13
2019-05-07T02:35:43.855Z,56.21
2019-05-07T02:38:13.704Z,56.07
2019-05-07T02:40:39.627Z,56.03
2019-05-07T02:43:06.570Z,56.05
2019-05-07T02:45:33.507Z,56.15
2019-05-07T02:48:03.246Z,56.17
2019-05-07T02:50:28.816Z,56.12
2019-05-07T02:52:55.618Z,56.40
2019-05-07T02:55:23.175Z,56.61
2019-05-07T02:57:50.214Z,56.47
2019-05-07T03:00:19.539Z,56.42
2019-05-07T03:02:45.620Z,56.44
2019-05-07T03:05:13.644Z,56.48
2019-05-07T03:07:42.803Z,56.43
2019-05-07T03:10:09.336Z,56.37
2019-05-07T03:12:36.446Z,56.35
2019-05-07T03:15:04.773Z,56.45
2019-05-07T03:17:33.296Z,56.17
2019-05-07T03:20:03.147Z,56.28
2019-05-07T03:22:28.993Z,56.19
2019-05-07T03:24:55.750Z,56.58
2019-05-07T03:27:23.459Z,56.57
2019-05-07T03:29:53.320Z,56.38
2019-05-07T03:32:19.116Z,56.27
2019-05-07T03:34:47.172Z,56.30
2019-05-07T03:37:14.276Z,56.17
2019-05-07T03:39:43.334Z,56.50
2019-05-07T03:42:12.752Z,56.30
2019-05-07T03:44:38.207Z,56.67
2019-05-07T03:47:06.438Z,56.85
2019-05-07T03:49:34.192Z,56.93
2019-05-07T03:52:04.199Z,56.97
2019-05-07T03:54:29.892Z,56.58
2019-05-07T03:56:56.609Z,56.54
2019-05-07T03:59:23.512Z,56.68
2019-05-07T04:01:53.585Z,56.81
2019-05-07T04:04:18.863Z,56.81
2019-05-07T04:06:45.689Z,56.71
2019-05-07T04:09:13.373Z,57.00
2019-05-07T04:11:43.060Z,57.33
2019-05-07T04:14:08.932Z,57.17
2019-05-07T04:16:35.660Z,57.01
2019-05-07T04:19:03.850Z,56.80
2019-05-07T04:21:34.149Z,56.88
2019-05-07T04:23:59.322Z,56.80
2019-05-07T04:26:26.081Z,57.23
2019-05-07T04:28:53.955Z,56.88
2019-05-07T04:31:22.933Z,56.73
2019-05-07T04:33:49.565Z,56.79
2019-05-07T04:36:16.425Z,56.75
2019-05-07T04:38:43.957Z,56.82
2019-05-07T04:41:13.608Z,56.86
2019-05-07T04:43:43.183Z,56.84
2019-05-07T04:46:08.333Z,56.67
2019-05-07T04:48:35.074Z,56.27
2019-05-07T04:51:03.540Z,56.04
2019-05-07T04:53:32.850Z,56.24
2019-05-07T04:55:58.957Z,56.46
2019-05-07T04:58:26.746Z,56.67
2019-05-07T05:00:53.950Z,56.94
2019-05-07T05:03:23.417Z,57.34
2019-05-07T05:05:49.340Z,57.96
2019-05-07T05:08:16.089Z,58.12
2019-05-07T05:10:43.419Z,58.06
2019-05-07T05:13:12.622Z,57.94
2019-05-07T05:15:38.911Z,58.02
2019-05-07T05:18:05.622Z,58.19
2019-05-07T05:20:33.633Z,58.02
2019-05-07T05:23:20.200Z,57.89
2019-05-07T05:25:47.084Z,57.75
2019-05-07T05:28:13.838Z,57.50
2019-05-07T05:30:42.724Z,57.47
2019-05-07T05:33:09.529Z,57.57
2019-05-07T05:35:36.382Z,57.78
2019-05-07T05:38:03.838Z,57.65
2019-05-07T05:40:31.971Z,57.47
2019-05-07T05:42:58.888Z,57.40
2019-05-07T05:45:25.673Z,57.22
2019-05-07T05:48:04.434Z,57.16
2019-05-07T05:50:21.874Z,56.83
2019-05-07T05:52:48.617Z,56.51
2019-05-07T05:55:15.437Z,56.91
2019-05-07T05:57:42.478Z,56.83
2019-05-07T06:00:12.448Z,57.01
2019-05-07T06:02:38.726Z,57.01
2019-05-07T06:05:05.540Z,56.70
2019-05-07T06:07:32.254Z,56.24
2019-05-07T06:09:59.077Z,56.29
2019-05-07T06:12:25.804Z,56.17
2019-05-07T06:14:53.886Z,55.73
2019-05-07T06:17:22.395Z,55.67
2019-05-07T06:19:49.291Z,55.77
2019-05-07T06:22:16.809Z,55.75
2019-05-07T06:24:43.734Z,55.49
2019-05-07T06:27:12.268Z,55.25
2019-05-07T06:29:39.037Z,54.78
2019-05-07T06:32:05.839Z,54.34
2019-05-07T06:34:34.267Z,54.33
2019-05-07T06:37:02.321Z,53.54
2019-05-07T06:39:29.349Z,53.18
2019-05-07T06:41:56.093Z,52.77
2019-05-07T06:44:22.819Z,52.72
2019-05-07T06:46:49.614Z,52.50
2019-05-07T06:49:16.364Z,52.37
2019-05-07T06:51:43.085Z,51.66
2019-05-07T06:54:09.916Z,50.90
2019-05-07T06:56:36.646Z,50.78
2019-05-07T06:59:03.476Z,49.81
2019-05-07T07:01:32.255Z,49.18
2019-05-07T07:03:58.885Z,48.70
2019-05-07T07:06:25.656Z,48.35
2019-05-07T07:08:52.662Z,47.65
2019-05-07T07:11:19.486Z,47.56
2019-05-07T07:13:46.209Z,47.12
2019-05-07T07:16:13.081Z,47.62
2019-05-07T07:18:49.523Z,47.69
2019-05-07T07:21:08.440Z,47.52
2019-05-07T07:23:35.258Z,46.95
2019-05-07T07:26:03.119Z,46.36
2019-05-07T07:28:32.406Z,45.70
2019-05-07T07:30:58.787Z,44.80
2019-05-07T07:33:25.516Z,44.61
2019-05-07T07:35:52.246Z,45.22
2019-05-07T07:38:19.021Z,44.83
2019-05-07T07:40:45.738Z,43.71
2019-05-07T07:43:12.994Z,43.71
2019-05-07T07:45:41.903Z,42.86
2019-05-07T07:48:08.330Z,41.80
2019-05-07T07:50:35.060Z,42.19
2019-05-07T07:53:02.515Z,42.62
2019-05-07T07:55:29.477Z,43.18
2019-05-07T07:57:56.203Z,42.65
2019-05-07T08:00:23.427Z,42.32
2019-05-07T08:02:50.246Z,41.45
2019-05-07T08:05:17.085Z,40.95
2019-05-07T08:07:43.877Z,41.48
2019-05-07T08:10:12.866Z,40.81
2019-05-07T08:12:41.972Z,41.04
2019-05-07T08:15:16.718Z,41.01
2019-05-07T08:17:37.132Z,41.49
2019-05-07T08:20:06.269Z,40.81
2019-05-07T08:22:33.184Z,41.01
2019-05-07T08:25:01.754Z,40.31
2019-05-07T08:27:28.459Z,40.42
2019-05-07T08:29:55.267Z,39.73
2019-05-07T08:32:22.397Z,39.69
2019-05-07T08:34:49.475Z,40.63
2019-05-07T08:37:16.287Z,40.18
2019-05-07T08:39:43.088Z,40.21
2019-05-07T08:42:12.103Z,42.61
2019-05-07T08:44:38.427Z,40.75
2019-05-07T08:47:05.142Z,40.70
2019-05-07T08:49:39.399Z,40.55
2019-05-07T08:52:03.099Z,38.86
2019-05-07T08:54:32.922Z,38.45
2019-05-07T08:57:01.978Z,39.94
2019-05-07T08:59:28.880Z,39.13
2019-05-07T09:01:55.625Z,40.20
2019-05-07T09:04:22.590Z,38.33
2019-05-07T09:06:49.611Z,38.29
2019-05-07T09:09:16.374Z,38.34
2019-05-07T09:11:43.283Z,44.09
2019-05-07T09:14:12.255Z,42.82
2019-05-07T09:16:38.603Z,38.09
2019-05-07T09:19:05.575Z,36.39
2019-05-07T09:21:33.171Z,37.93
2019-05-07T09:23:59.903Z,37.67
2019-05-07T09:26:26.661Z,37.75
2019-05-07T09:28:53.533Z,37.40
2019-05-07T09:31:22.326Z,38.22
2019-05-07T09:33:48.917Z,36.57
2019-05-07T09:36:15.720Z,37.18
2019-05-07T09:38:55.226Z,37.09
2019-05-07T09:41:12.035Z,38.12
2019-05-07T09:43:38.975Z,37.67
2019-05-07T09:46:05.714Z,38.47
2019-05-07T09:48:33.852Z,39.07
2019-05-07T09:51:02.305Z,37.67
2019-05-07T09:53:29.179Z,36.46
2019-05-07T09:55:55.935Z,36.77
2019-05-07T09:58:35.770Z,37.56
2019-05-07T10:00:51.665Z,37.26
2019-05-07T10:03:18.526Z,35.91
2019-05-07T10:05:45.328Z,35.96
2019-05-07T10:08:12.882Z,34.84
2019-05-07T10:10:41.682Z,35.79
2019-05-07T10:13:08.597Z,34.72
2019-05-07T10:15:35.344Z,35.99
2019-05-07T10:18:02.187Z,35.25
2019-05-07T10:20:30.104Z,36.03
2019-05-07T10:22:57.556Z,35.81
2019-05-07T10:25:24.390Z,35.06
2019-05-07T10:27:53.129Z,34.62
2019-05-07T10:30:21.903Z,35.26
2019-05-07T10:32:48.622Z,35.64
2019-05-07T10:35:16.385Z,34.58
2019-05-07T10:37:43.088Z,34.39
2019-05-07T10:40:12.273Z,34.70
2019-05-07T10:42:39.251Z,34.22
2019-05-07T10:45:06.824Z,34.81
2019-05-07T10:47:33.565Z,33.77
2019-05-07T10:50:02.778Z,33.11
2019-05-07T10:52:29.174Z,33.96
2019-05-07T10:55:03.846Z,32.32
2019-05-07T10:57:32.886Z,31.45
2019-05-07T11:00:03.023Z,32.18
2019-05-07T11:02:29.325Z,33.63
2019-05-07T11:04:56.121Z,33.61
2019-05-07T11:07:22.970Z,33.51
2019-05-07T11:09:49.724Z,32.37
2019-05-07T11:12:16.546Z,33.54
2019-05-07T11:14:43.875Z,33.66
2019-05-07T11:17:11.866Z,32.79
2019-05-07T11:19:38.867Z,33.15
2019-05-07T11:22:05.628Z,32.71
2019-05-07T11:24:32.361Z,31.37
2019-05-07T11:26:59.247Z,31.52
2019-05-07T11:29:25.997Z,32.46
2019-05-07T11:31:55.521Z,31.07
2019-05-07T11:34:22.407Z,31.92
2019-05-07T11:36:49.171Z,31.11
2019-05-07T11:39:15.902Z,29.35
2019-05-07T11:41:42.829Z,30.50
2019-05-07T11:44:09.491Z,30.75
2019-05-07T11:46:36.227Z,30.12
2019-05-07T11:49:03.203Z,30.21
2019-05-07T11:51:29.961Z,31.26
2019-05-07T11:53:56.671Z,30.91
2019-05-07T11:56:23.660Z,30.39
2019-05-07T11:58:52.833Z,30.90
2019-05-07T12:01:19.222Z,30.91
2019-05-07T12:03:46.160Z,29.98
2019-05-07T12:06:13.006Z,27.38
2019-05-07T12:08:48.137Z,28.11
2019-05-07T12:11:08.456Z,28.19
2019-05-07T12:13:35.227Z,28.47
2019-05-07T12:16:02.951Z,28.99
2019-05-07T12:18:31.980Z,28.21
2019-05-07T12:20:58.750Z,28.89
2019-05-07T12:23:25.517Z,29.26
2019-05-07T12:25:52.879Z,28.84
2019-05-07T12:28:19.917Z,28.88
2019-05-07T12:30:46.701Z,29.10
2019-05-07T12:33:13.590Z,27.76
2019-05-07T12:35:42.091Z,25.67
2019-05-07T12:38:08.910Z,27.94
2019-05-07T12:40:35.803Z,26.93
2019-05-07T12:43:02.668Z,25.95
2019-05-07T12:45:29.487Z,26.15
2019-05-07T12:47:56.359Z,26.10
2019-05-07T12:50:23.128Z,27.14
2019-05-07T12:52:49.927Z,25.49
2019-05-07T12:55:16.906Z,25.49
2019-05-07T12:57:43.667Z,24.82
2019-05-07T13:00:12.260Z,26.24
2019-05-07T13:02:42.085Z,25.46
2019-05-07T13:05:07.900Z,25.97
2019-05-07T13:07:34.676Z,25.98
2019-05-07T13:10:02.598Z,26.24
2019-05-07T13:12:29.481Z,26.00
2019-05-07T13:14:56.251Z,24.86
2019-05-07T13:17:23.114Z,25.55
2019-05-07T13:19:49.950Z,25.48
2019-05-07T13:22:22.564Z,25.25
2019-05-07T13:24:49.337Z,24.92
2019-05-07T13:27:16.146Z,25.81
2019-05-07T13:29:44.916Z,24.22
2019-05-07T13:32:13.803Z,25.86
2019-05-07T13:34:42.575Z,24.22
2019-05-07T13:37:12.729Z,23.16
2019-05-07T13:39:40.064Z,23.33
2019-05-07T13:42:07.076Z,25.19
2019-05-07T13:44:34.233Z,26.29
2019-05-07T13:47:02.063Z,26.80
2019-05-07T13:49:29.719Z,26.51
2019-05-07T13:52:03.529Z,25.64
2019-05-07T13:54:25.135Z,27.13
2019-05-07T13:56:52.542Z,26.80
2019-05-07T13:59:19.465Z,27.05
2019-05-07T14:01:46.290Z,26.50
2019-05-07T14:04:13.158Z,26.44
2019-05-07T14:06:42.978Z,25.76
2019-05-07T14:09:12.257Z,24.10
2019-05-07T14:11:39.154Z,25.08
2019-05-07T14:14:05.924Z,24.65
2019-05-07T14:16:32.759Z,25.02
2019-05-07T14:18:59.696Z,23.70
2019-05-07T14:21:26.512Z,24.03
2019-05-07T14:23:53.323Z,24.21
2019-05-07T14:26:23.740Z,23.58
2019-05-07T14:28:48.652Z,23.50
2019-05-07T14:31:16.336Z,23.52
2019-05-07T14:33:43.081Z,23.19
2019-05-07T14:36:11.621Z,23.20
2019-05-07T14:38:38.405Z,24.22
2019-05-07T14:41:05.161Z,23.46
2019-05-07T14:43:32.458Z,23.03
2019-05-07T14:45:59.356Z,23.62
2019-05-07T14:48:26.249Z,22.93
2019-05-07T14:50:53.104Z,23.80
2019-05-07T14:53:22.378Z,24.37
2019-05-07T14:55:49.180Z,22.35
2019-05-07T14:58:17.808Z,23.09
2019-05-07T15:00:44.660Z,23.98
2019-05-07T15:03:12.489Z,22.34
2019-05-07T15:05:39.476Z,22.83
2019-05-07T15:08:10.517Z,21.96
2019-05-07T15:10:35.019Z,25.27
2019-05-07T15:13:02.337Z,26.06
2019-05-07T15:15:29.489Z,23.46
2019-05-07T15:17:57.034Z,22.48
2019-05-07T15:20:24.411Z,25.86
2019-05-07T15:22:52.646Z,23.91
2019-05-07T15:25:22.529Z,27.80
2019-05-07T15:27:49.835Z,23.20
2019-05-07T15:30:18.011Z,29.10
2019-05-07T15:32:44.815Z,28.28
2019-05-07T15:35:12.602Z,29.10
2019-05-07T15:37:39.582Z,30.39
2019-05-07T15:40:07.748Z,31.33
2019-05-07T15:42:34.519Z,30.22
2019-05-07T15:45:02.325Z,30.00
2019-05-07T15:47:31.540Z,30.89
2019-05-07T15:49:57.926Z,30.91
2019-05-07T15:52:24.915Z,30.98
2019-05-07T15:54:52.298Z,30.50
2019-05-07T15:57:19.138Z,30.83
2019-05-07T15:59:45.988Z,31.90
2019-05-07T16:02:12.780Z,31.42
2019-05-07T16:04:39.539Z,32.15
2019-05-07T16:07:06.371Z,30.04
2019-05-07T16:09:33.382Z,31.10
2019-05-07T16:12:00.134Z,30.62
2019-05-07T16:14:27.210Z,32.59
2019-05-07T16:16:54.045Z,32.61
2019-05-07T16:19:20.929Z,33.77
2019-05-07T16:21:48.296Z,33.21
2019-05-07T16:24:15.051Z,33.23
2019-05-07T16:26:42.048Z,32.62
2019-05-07T16:29:08.958Z,33.70
2019-05-07T16:31:35.919Z,34.83
2019-05-07T16:34:05.710Z,33.14
2019-05-07T16:36:33.007Z,32.24
2019-05-07T16:38:59.919Z,32.96
2019-05-07T16:41:26.651Z,33.20
2019-05-07T16:43:53.487Z,33.81
2019-05-07T16:46:22.278Z,32.82
2019-05-07T16:48:48.895Z,33.43
2019-05-07T16:51:15.724Z,33.21
2019-05-07T16:53:42.485Z,32.75
2019-05-07T16:56:09.291Z,33.72
2019-05-07T16:58:36.117Z,34.28
2019-05-07T17:01:03.065Z,36.30
2019-05-07T17:03:31.760Z,35.81
2019-05-07T17:05:58.789Z,35.33
2019-05-07T17:08:25.529Z,36.40
2019-05-07T17:10:52.456Z,35.79
2019-05-07T17:13:19.287Z,35.31
2019-05-07T17:15:46.143Z,35.81
2019-05-07T17:18:12.918Z,36.16
2019-05-07T17:20:39.771Z,36.58
2019-05-07T17:23:06.563Z,36.62
2019-05-07T17:25:33.491Z,37.25
2019-05-07T17:28:00.323Z,37.26
2019-05-07T17:30:27.131Z,37.61
2019-05-07T17:32:53.902Z,38.97
2019-05-07T17:35:22.443Z,38.47
2019-05-07T17:37:49.310Z,38.58
2019-05-07T17:40:18.026Z,38.97
2019-05-07T17:42:46.701Z,39.44
2019-05-07T17:45:13.685Z,39.99
2019-05-07T17:47:42.367Z,40.43
2019-05-07T17:50:09.491Z,40.61
2019-05-07T17:52:36.274Z,40.92
2019-05-07T17:55:05.640Z,41.15
2019-05-07T17:57:33.459Z,41.19
2019-05-07T18:00:02.211Z,41.75
2019-05-07T18:02:32.194Z,42.08
2019-05-07T18:04:59.236Z,42.52
2019-05-07T18:07:26.013Z,42.73
2019-05-07T18:09:52.751Z,43.08
2019-05-07T18:12:22.486Z,43.18
2019-05-07T18:14:49.509Z,43.76
2019-05-07T18:17:16.264Z,43.94
2019-05-07T18:19:44.445Z,44.24
2019-05-07T18:22:12.779Z,44.66
2019-05-07T18:24:41.885Z,45.06
2019-05-07T18:27:08.641Z,45.35
2019-05-07T18:29:35.621Z,45.50
2019-05-07T18:32:02.534Z,45.76
2019-05-07T18:34:29.350Z,45.97
2019-05-07T18:36:56.102Z,46.14
2019-05-07T18:39:22.899Z,46.30
2019-05-07T18:41:49.781Z,46.55
2019-05-07T18:44:16.607Z,46.95
2019-05-07T18:46:43.362Z,47.23
2019-05-07T18:49:10.198Z,47.27
2019-05-07T18:51:36.981Z,47.37
2019-05-07T18:54:03.758Z,47.51
2019-05-07T18:56:30.664Z,47.57
2019-05-07T18:58:57.435Z,48.15
2019-05-07T19:01:24.198Z,48.34
2019-05-07T19:03:52.592Z,48.35
2019-05-07T19:06:19.371Z,48.61
2019-05-07T19:08:46.928Z,48.76
2019-05-07T19:11:13.855Z,48.98
2019-05-07T19:13:41.947Z,49.12
2019-05-07T19:16:09.045Z,49.29
2019-05-07T19:18:35.865Z,49.47
2019-05-07T19:21:02.730Z,49.47
2019-05-07T19:23:29.479Z,49.43
2019-05-07T19:25:56.778Z,49.75
2019-05-07T19:28:23.532Z,49.91
2019-05-07T19:30:52.554Z,49.88
2019-05-07T19:33:18.936Z,49.96
2019-05-07T19:35:45.734Z,50.50
2019-05-07T19:38:12.503Z,50.25
2019-05-07T19:40:39.369Z,50.36
2019-05-07T19:43:06.112Z,50.44
2019-05-07T19:45:32.891Z,50.49
2019-05-07T19:47:59.704Z,50.58
2019-05-07T19:50:26.452Z,50.60
2019-05-07T19:52:53.223Z,50.88
2019-05-07T19:55:21.846Z,51.19
2019-05-07T19:57:48.602Z,51.12
2019-05-07T20:00:16.969Z,51.22
2019-05-07T20:02:43.828Z,51.37
2019-05-07T20:05:12.131Z,51.60
2019-05-07T20:07:38.979Z,51.81
2019-05-07T20:10:06.071Z,51.89
2019-05-07T20:12:32.867Z,51.87
2019-05-07T20:14:59.618Z,51.91
2019-05-07T20:17:26.547Z,51.98
2019-05-07T20:19:53.323Z,52.09
2019-05-07T20:22:22.050Z,52.16
2019-05-07T20:24:48.718Z,52.25
2019-05-07T20:27:15.505Z,52.26
2019-05-07T20:29:42.780Z,52.38
2019-05-07T20:32:09.842Z,52.55
2019-05-07T20:34:36.616Z,52.67
2019-05-07T20:37:03.384Z,52.76
2019-05-07T20:39:32.128Z,52.94
2019-05-07T20:41:58.767Z,53.15
2019-05-07T20:44:25.544Z,53.13
2019-05-07T20:46:53.552Z,52.93
2019-05-07T20:49:22.533Z,53.14
2019-05-07T20:51:49.815Z,53.22
2019-05-07T20:54:17.077Z,53.26
2019-05-07T20:56:46.624Z,53.37
2019-05-07T20:59:13.227Z,53.45
2019-05-07T21:01:42.010Z,53.38
2019-05-07T21:04:08.779Z,53.33
2019-05-07T21:06:35.550Z,53.23
2019-05-07T21:09:04.953Z,53.33
2019-05-07T21:11:32.323Z,53.36
2019-05-07T21:13:59.339Z,53.38
2019-05-07T21:16:26.200Z,53.88
2019-05-07T21:18:53.006Z,53.80
2019-05-07T21:21:21.777Z,53.71
2019-05-07T21:23:48.421Z,53.71
2019-05-07T21:26:15.247Z,53.81
2019-05-07T21:28:43.134Z,54.05
2019-05-07T21:31:11.944Z,53.53
2019-05-07T21:33:38.855Z,53.58
2019-05-07T21:36:05.616Z,53.37
2019-05-07T21:38:33.042Z,53.40
2019-05-07T21:40:59.892Z,53.26
2019-05-07T21:43:26.636Z,53.67
2019-05-07T21:45:53.565Z,53.47
2019-05-07T21:48:22.262Z,52.71
2019-05-07T21:50:49.108Z,52.22
2019-05-07T21:53:16.131Z,52.90
2019-05-07T21:55:44.262Z,53.50
2019-05-07T21:58:11.819Z,53.69
2019-05-07T22:00:39.145Z,53.92
2019-05-07T22:03:06.111Z,54.21
2019-05-07T22:05:32.849Z,54.24
2019-05-07T22:08:01.477Z,53.97
2019-05-07T22:10:28.227Z,53.96
2019-05-07T22:12:54.988Z,54.33
2019-05-07T22:15:22.460Z,54.38
2019-05-07T22:17:49.252Z,54.54
2019-05-07T22:20:16.027Z,54.76
2019-05-07T22:22:42.941Z,54.95
2019-05-07T22:25:09.902Z,55.22
2019-05-07T22:27:36.902Z,55.04
2019-05-07T22:30:07.249Z,55.11
2019-05-07T22:32:34.082Z,54.81
2019-05-07T22:35:02.826Z,55.11
2019-05-07T22:37:29.442Z,55.42
2019-05-07T22:39:56.196Z,55.11
2019-05-07T22:42:22.941Z,55.38
2019-05-07T22:44:49.850Z,55.42
2019-05-07T22:47:16.638Z,55.73
2019-05-07T22:49:44.928Z,55.53
2019-05-07T22:52:12.764Z,55.59
2019-05-07T22:54:39.707Z,55.55
2019-05-07T22:57:06.481Z,55.47
2019-05-07T22:59:33.399Z,55.65
2019-05-07T23:02:02.881Z,55.94
2019-05-07T23:04:28.744Z,55.98
2019-05-07T23:06:55.589Z,55.93
2019-05-07T23:09:22.569Z,55.70
2019-05-07T23:11:49.428Z,55.98
2019-05-07T23:14:16.254Z,56.31
2019-05-07T23:16:43.132Z,56.12
2019-05-07T23:19:09.874Z,56.19
2019-05-07T23:21:36.669Z,56.25
2019-05-07T23:24:03.454Z,56.26
2019-05-07T23:26:33.541Z,56.39
2019-05-07T23:28:58.999Z,56.83
2019-05-07T23:31:25.788Z,56.86
2019-05-07T23:33:52.549Z,57.02
2019-05-07T23:36:19.405Z,56.85
2019-05-07T23:38:46.137Z,57.12
2019-05-07T23:41:12.919Z,57.24
2019-05-07T23:43:39.832Z,57.12
2019-05-07T23:46:06.613Z,57.00
2019-05-07T23:48:33.389Z,57.10
2019-05-07T23:51:02.073Z,56.92
2019-05-07T23:53:28.841Z,56.49
2019-05-07T23:55:55.620Z,56.77
2019-05-07T23:58:23.078Z,57.00
